createdAt,value
2023-08-03T00:01:56.112Z,85.10
2023-08-03T00:04:34.686Z,85.67
2023-08-03T00:07:12.184Z,86.36
2023-08-03T00:09:51.658Z,87.05
2023-08-03T00:12:21.478Z,86.78
2023-08-03T00:14:51.968Z,87.65
2023-08-03T00:17:20.077Z,87.59
2023-08-03T00:19:49.763Z,87.38
2023-08-03T00:22:23.291Z,86.76
2023-08-03T00:25:03.663Z,87.66
2023-08-03T00:27:46.581Z,88.54
2023-08-03T00:30:17.449Z,89.83
2023-08-03T00:32:49.284Z,90.15
2023-08-03T00:35:22.594Z,89.93
2023-08-03T00:38:09.980Z,90.06
2023-08-03T00:40:40.565Z,91.27
2023-08-03T00:43:17.089Z,90.83
2023-08-03T00:45:47.150Z,90.98
2023-08-03T00:48:20.405Z,89.73
2023-08-03T00:50:51.538Z,90.80
2023-08-03T00:53:23.401Z,90.87
2023-08-03T00:55:51.984Z,90.87
2023-08-03T00:58:24.321Z,90.88
2023-08-03T01:00:56.642Z,91.47
2023-08-03T01:03:33.784Z,90.44
2023-08-03T01:06:02.424Z,92.25
2023-08-03T01:08:40.791Z,89.99
2023-08-03T01:11:11.569Z,90.36
2023-08-03T01:13:49.921Z,90.74
2023-08-03T01:16:26.128Z,90.68
2023-08-03T01:18:55.647Z,89.16
2023-08-03T01:21:27.386Z,90.52
2023-08-03T01:24:03.768Z,91.85
2023-08-03T01:26:32.718Z,90.98
2023-08-03T01:29:03.273Z,91.42
2023-08-03T01:31:37.121Z,93.07
2023-08-03T01:34:12.045Z,92.29
2023-08-03T01:36:40.562Z,93.16
2023-08-03T01:39:20.365Z,92.44
2023-08-03T01:41:51.529Z,93.61
2023-08-03T01:44:27.662Z,92.30
2023-08-03T01:47:08.908Z,94.85
2023-08-03T01:49:37.137Z,95.10
2023-08-03T01:52:06.747Z,94.74
2023-08-03T01:54:38.834Z,94.45
2023-08-03T01:57:07.666Z,94.70
2023-08-03T01:59:36.200Z,93.58
2023-08-03T02:02:09.411Z,95.77
2023-08-03T02:04:40.611Z,95.54
2023-08-03T02:07:21.145Z,95.87
2023-08-03T02:10:02.730Z,96.78
2023-08-03T02:12:32.639Z,97.80
2023-08-03T02:15:06.209Z,96.28
2023-08-03T02:17:37.142Z,96.33
2023-08-03T02:20:07.310Z,95.06
2023-08-03T02:22:38.942Z,93.84
2023-08-03T02:25:16.186Z,92.44
2023-08-03T02:27:45.822Z,90.25
2023-08-03T02:30:17.898Z,90.63
2023-08-03T02:32:54.756Z,90.44
2023-08-03T02:35:29.948Z,90.68
2023-08-03T02:38:10.336Z,92.69
2023-08-03T02:40:45.604Z,92.88
2023-08-03T02:43:31.671Z,93.29
2023-08-03T02:46:01.438Z,92.74
2023-08-03T02:48:40.688Z,94.29
2023-08-03T02:51:19.282Z,94.47
2023-08-03T02:53:51.314Z,94.22
2023-08-03T02:56:22.074Z,93.84
2023-08-03T02:58:58.046Z,93.13
2023-08-03T03:01:38.069Z,94.81
2023-08-03T03:04:08.298Z,93.90
2023-08-03T03:06:43.768Z,93.17
2023-08-03T03:09:18.633Z,92.95
2023-08-03T03:12:02.695Z,91.26
2023-08-03T03:14:47.790Z,91.91
2023-08-03T03:17:31.946Z,91.65
2023-08-03T03:20:04.697Z,89.95
2023-08-03T03:22:33.100Z,89.75
2023-08-03T03:25:07.209Z,89.67
2023-08-03T03:27:38.061Z,89.05
2023-08-03T03:30:09.080Z,88.12
2023-08-03T03:32:37.908Z,88.49
2023-08-03T03:35:09.647Z,87.94
2023-08-03T03:37:38.398Z,85.99
2023-08-03T03:40:10.392Z,87.10
2023-08-03T03:42:48.900Z,85.99
2023-08-03T03:45:30.097Z,86.07
2023-08-03T03:48:04.169Z,84.12
2023-08-03T03:50:42.835Z,84.77
2023-08-03T03:53:11.615Z,84.90
2023-08-03T03:55:48.004Z,84.44
2023-08-03T03:58:26.925Z,84.37
2023-08-03T04:00:57.653Z,83.47
2023-08-03T04:03:30.001Z,84.43
2023-08-03T04:06:07.850Z,83.31
2023-08-03T04:08:37.450Z,83.36
2023-08-03T04:11:14.225Z,82.99
2023-08-03T04:13:43.737Z,82.17
2023-08-03T04:16:14.703Z,82.27
2023-08-03T04:18:46.860Z,82.86
2023-08-03T04:21:20.077Z,82.15
2023-08-03T04:23:48.681Z,81.49
2023-08-03T04:26:18.360Z,81.59
2023-08-03T04:28:48.770Z,81.17
2023-08-03T04:31:23.728Z,80.85
2023-08-03T04:33:53.587Z,80.63
2023-08-03T04:36:25.142Z,80.02
2023-08-03T04:38:55.961Z,80.21
2023-08-03T04:41:30.033Z,79.33
2023-08-03T04:44:02.273Z,74.93
2023-08-03T04:46:36.792Z,74.25
2023-08-03T04:49:11.486Z,73.13
2023-08-03T04:51:46.681Z,72.68
2023-08-03T04:54:20.550Z,71.51
2023-08-03T04:56:49.439Z,70.12
2023-08-03T04:59:21.639Z,69.01
2023-08-03T05:01:51.542Z,67.93
2023-08-03T05:04:20.535Z,66.23
2023-08-03T05:06:52.276Z,65.91
2023-08-03T05:09:24.149Z,64.43
2023-08-03T05:11:53.281Z,63.67
2023-08-03T05:14:25.432Z,64.24
2023-08-03T05:16:59.758Z,63.86
2023-08-03T05:19:28.516Z,63.49
2023-08-03T05:21:58.759Z,63.56
2023-08-03T05:24:44.692Z,62.86
2023-08-03T05:27:17.492Z,63.52
2023-08-03T05:29:59.662Z,63.39
2023-08-03T05:32:49.962Z,63.27
2023-08-03T05:35:20.160Z,64.02
2023-08-03T05:37:50.480Z,64.59
2023-08-03T05:40:22.362Z,63.90
2023-08-03T05:42:50.553Z,64.18
2023-08-03T05:45:46.019Z,63.43
2023-08-03T05:48:20.083Z,64.25
2023-08-03T05:50:52.108Z,64.53
2023-08-03T05:53:21.152Z,63.78
2023-08-03T05:56:05.456Z,64.10
2023-08-03T05:58:44.255Z,62.86
2023-08-03T06:01:22.730Z,63.58
2023-08-03T06:03:54.294Z,62.87
2023-08-03T06:06:35.207Z,62.79
2023-08-03T06:09:06.022Z,62.57
2023-08-03T06:11:34.619Z,62.31
2023-08-03T06:14:04.590Z,63.02
2023-08-03T06:16:37.062Z,62.34
2023-08-03T06:19:07.649Z,61.88
2023-08-03T06:21:45.474Z,61.15
2023-08-03T06:24:17.872Z,60.94
2023-08-03T06:26:47.483Z,60.84
2023-08-03T06:29:20.927Z,61.21
2023-08-03T06:31:59.943Z,61.31
2023-08-03T06:34:30.144Z,61.13
2023-08-03T06:37:01.746Z,61.44
2023-08-03T06:39:30.870Z,60.80
2023-08-03T06:42:18.228Z,61.12
2023-08-03T06:44:52.440Z,60.45
2023-08-03T06:47:29.031Z,60.02
2023-08-03T06:50:00.521Z,59.13
2023-08-03T06:52:35.677Z,59.11
2023-08-03T06:55:05.375Z,58.19
2023-08-03T06:57:36.134Z,57.62
2023-08-03T07:00:05.544Z,57.44
2023-08-03T07:02:44.792Z,57.48
2023-08-03T07:05:20.400Z,57.66
2023-08-03T07:07:52.208Z,58.77
2023-08-03T07:10:30.850Z,58.39
2023-08-03T07:13:00.342Z,58.13
2023-08-03T07:15:38.350Z,57.64
2023-08-03T07:18:21.101Z,58.68
2023-08-03T07:21:03.334Z,58.90
2023-08-03T07:23:33.191Z,59.11
2023-08-03T07:26:06.644Z,57.98
2023-08-03T07:28:37.328Z,58.93
2023-08-03T07:31:08.374Z,58.33
2023-08-03T07:33:45.638Z,57.59
2023-08-03T07:36:29.331Z,57.87
2023-08-03T07:38:58.752Z,57.80
2023-08-03T07:41:28.376Z,57.87
2023-08-03T07:44:03.276Z,59.42
2023-08-03T07:46:33.419Z,59.54
2023-08-03T07:49:11.317Z,60.35
2023-08-03T07:51:43.843Z,60.85
2023-08-03T07:54:20.522Z,60.41
2023-08-03T07:56:58.361Z,59.73
2023-08-03T07:59:29.491Z,60.63
2023-08-03T08:02:00.166Z,60.00
2023-08-03T08:04:35.141Z,57.79
2023-08-03T08:07:09.332Z,58.64
2023-08-03T08:09:43.497Z,58.42
2023-08-03T08:12:12.707Z,57.85
2023-08-03T08:14:54.729Z,57.38
2023-08-03T08:17:26.594Z,57.53
2023-08-03T08:20:18.154Z,57.11
2023-08-03T08:22:47.014Z,56.04
2023-08-03T08:25:19.005Z,55.93
2023-08-03T08:27:48.819Z,55.64
2023-08-03T08:30:20.565Z,55.69
2023-08-03T08:32:52.606Z,56.02
2023-08-03T08:35:29.603Z,54.81
2023-08-03T08:38:01.515Z,55.07
2023-08-03T08:40:29.777Z,54.55
2023-08-03T08:43:07.811Z,54.23
2023-08-03T08:45:43.932Z,54.14
2023-08-03T08:54:17.958Z,53.13
2023-08-03T09:01:54.023Z,52.77
2023-08-03T09:04:38.932Z,53.87
2023-08-03T09:07:26.712Z,54.40
2023-08-03T09:10:06.521Z,54.45
2023-08-03T09:12:35.752Z,55.10
2023-08-03T09:15:11.948Z,54.98
2023-08-03T09:17:43.717Z,54.98
2023-08-03T09:25:41.916Z,55.40
2023-08-03T09:33:36.565Z,55.45
2023-08-03T09:44:25.946Z,55.42
2023-08-03T09:47:06.483Z,54.79
2023-08-03T09:49:36.129Z,54.48
2023-08-03T09:52:14.075Z,54.97
2023-08-03T09:57:37.475Z,55.16
2023-08-03T10:00:14.890Z,56.46
2023-08-03T10:02:54.173Z,56.67
2023-08-03T10:05:30.466Z,55.81
2023-08-03T10:08:08.143Z,55.70
2023-08-03T10:11:01.321Z,55.66
2023-08-03T10:13:38.380Z,55.74
2023-08-03T10:16:07.629Z,55.37
2023-08-03T10:18:58.325Z,55.03
2023-08-03T10:21:29.650Z,55.59
2023-08-03T10:24:16.455Z,55.15
2023-08-03T10:26:52.491Z,54.62
2023-08-03T10:29:55.922Z,53.99
2023-08-03T10:32:26.582Z,54.06
2023-08-03T10:34:59.532Z,54.14
2023-08-03T10:37:30.796Z,56.00
2023-08-03T10:40:02.049Z,56.55
2023-08-03T10:42:38.617Z,58.18
2023-08-03T10:45:34.064Z,59.23
2023-08-03T10:48:38.693Z,59.96
2023-08-03T10:51:10.840Z,60.11
2023-08-03T10:53:42.193Z,59.57
2023-08-03T10:56:15.554Z,57.98
2023-08-03T10:58:59.147Z,58.57
2023-08-03T11:01:29.659Z,58.26
2023-08-03T11:04:02.427Z,59.00
2023-08-03T11:06:42.061Z,59.09
2023-08-03T11:09:14.123Z,58.58
2023-08-03T11:11:47.517Z,58.67
2023-08-03T11:14:21.081Z,58.58
2023-08-03T11:16:50.617Z,59.30
2023-08-03T11:19:21.717Z,58.95
2023-08-03T11:21:51.447Z,58.29
2023-08-03T11:24:22.204Z,59.01
2023-08-03T11:27:00.521Z,58.52
2023-08-03T11:29:35.842Z,59.57
2023-08-03T11:32:06.499Z,58.87
2023-08-03T11:34:35.157Z,59.33
2023-08-03T11:37:06.752Z,59.47
2023-08-03T11:39:35.854Z,59.48
2023-08-03T11:42:06.634Z,59.54
2023-08-03T11:44:55.112Z,59.18
2023-08-03T11:47:27.650Z,59.08
2023-08-03T11:50:01.619Z,59.79
2023-08-03T11:52:32.357Z,59.99
2023-08-03T11:55:07.306Z,60.22
2023-08-03T11:57:55.172Z,59.56
2023-08-03T12:00:29.769Z,60.57
2023-08-03T12:03:04.258Z,59.57
2023-08-03T12:05:52.579Z,59.36
2023-08-03T12:08:32.885Z,60.67
2023-08-03T12:11:07.285Z,60.83
2023-08-03T12:16:34.390Z,59.49
2023-08-03T12:19:09.559Z,58.81
2023-08-03T12:21:39.445Z,60.54
2023-08-03T12:24:10.983Z,60.38
2023-08-03T12:26:42.952Z,60.52
2023-08-03T12:29:12.197Z,60.67
2023-08-03T12:31:45.037Z,61.18
2023-08-03T12:34:19.188Z,60.98
2023-08-03T12:36:49.430Z,61.71
2023-08-03T12:39:26.995Z,61.66
2023-08-03T12:42:07.734Z,61.90
2023-08-03T12:44:39.608Z,61.65
2023-08-03T12:47:11.895Z,61.10
2023-08-03T12:49:50.106Z,61.75
2023-08-03T12:52:18.516Z,61.86
2023-08-03T12:54:59.263Z,61.23
2023-08-03T12:57:35.631Z,61.62
2023-08-03T13:00:08.619Z,60.88
2023-08-03T13:02:42.111Z,60.50
2023-08-03T13:05:13.581Z,60.31
2023-08-03T13:07:54.920Z,60.07
2023-08-03T13:10:23.440Z,60.33
2023-08-03T13:12:59.562Z,60.35
2023-08-03T13:15:38.628Z,59.96
2023-08-03T13:18:23.738Z,60.76
2023-08-03T13:21:02.500Z,61.06
2023-08-03T13:23:31.976Z,62.46
2023-08-03T13:26:11.100Z,61.54
2023-08-03T13:28:40.396Z,62.07
2023-08-03T13:31:11.087Z,62.55
2023-08-03T13:33:44.971Z,62.30
2023-08-03T13:36:15.232Z,62.02
2023-08-03T13:38:47.023Z,61.30
2023-08-03T13:41:16.408Z,61.08
2023-08-03T13:43:55.616Z,60.32
2023-08-03T13:46:31.905Z,60.84
2023-08-03T13:49:15.353Z,59.82
2023-08-03T13:51:51.764Z,59.95
2023-08-03T13:54:28.447Z,60.20
2023-08-03T13:57:02.060Z,62.12
2023-08-03T13:59:41.549Z,61.72
2023-08-03T14:02:14.906Z,60.94
2023-08-03T14:05:01.567Z,60.37
2023-08-03T14:23:21.280Z,58.59
2023-08-03T14:25:56.274Z,57.30
2023-08-03T14:31:02.272Z,56.87
2023-08-03T14:33:31.361Z,57.20
2023-08-03T14:36:17.318Z,57.87
2023-08-03T14:38:48.640Z,59.66
2023-08-03T14:41:26.940Z,59.69
2023-08-03T14:44:06.569Z,60.11
2023-08-03T14:46:38.131Z,60.90
2023-08-03T14:49:11.154Z,60.73
2023-08-03T14:54:17.104Z,60.79
2023-08-03T14:56:48.573Z,60.98
2023-08-03T15:02:09.461Z,62.92
2023-08-03T15:04:44.855Z,62.36
2023-08-03T15:07:25.827Z,62.34
2023-08-03T15:10:01.860Z,63.11
2023-08-03T15:12:32.777Z,63.19
2023-08-03T15:17:38.835Z,63.49
2023-08-03T15:20:23.703Z,63.63
2023-08-03T15:23:13.064Z,63.29
2023-08-03T15:25:41.835Z,64.06
2023-08-03T15:28:33.360Z,63.51
2023-08-03T15:31:17.172Z,64.92
2023-08-03T15:33:51.107Z,63.55
2023-08-03T15:36:43.644Z,63.49
2023-08-03T15:39:32.529Z,64.45
2023-08-03T15:42:06.442Z,64.07
2023-08-03T15:44:45.102Z,63.11
2023-08-03T15:47:43.291Z,62.71
2023-08-03T15:50:12.262Z,62.10
2023-08-03T15:53:13.778Z,62.47
2023-08-03T15:58:29.346Z,63.71
2023-08-03T16:01:17.631Z,63.70
2023-08-03T16:04:04.542Z,63.23
2023-08-03T16:06:42.377Z,63.56
2023-08-03T16:09:20.289Z,63.78
2023-08-03T16:11:56.838Z,62.64
2023-08-03T16:14:29.127Z,63.14
2023-08-03T16:17:10.276Z,62.93
2023-08-03T16:19:54.119Z,63.51
2023-08-03T16:22:24.847Z,63.81
2023-08-03T16:25:08.039Z,64.05
2023-08-03T16:27:51.336Z,64.43
2023-08-03T16:30:23.522Z,64.91
2023-08-03T16:32:57.083Z,64.82
2023-08-03T16:35:32.944Z,65.44
2023-08-03T16:38:06.941Z,66.27
2023-08-03T16:40:42.210Z,66.03
2023-08-03T16:43:19.593Z,66.41
2023-08-03T16:46:00.403Z,66.57
2023-08-03T16:48:54.063Z,67.15
2023-08-03T16:51:29.448Z,67.82
2023-08-03T16:54:02.599Z,68.04
2023-08-03T16:56:33.635Z,68.46
2023-08-03T16:59:09.945Z,68.29
2023-08-03T17:01:47.021Z,68.12
2023-08-03T17:04:18.076Z,69.55
2023-08-03T17:06:50.864Z,69.79
2023-08-03T17:09:27.497Z,69.82
2023-08-03T17:12:09.981Z,69.43
2023-08-03T17:14:56.632Z,70.44
2023-08-03T17:17:37.329Z,69.85
2023-08-03T17:20:19.190Z,69.09
2023-08-03T17:23:00.737Z,68.29
2023-08-03T17:25:40.447Z,68.77
2023-08-03T17:28:23.775Z,67.97
2023-08-03T17:31:02.602Z,67.34
2023-08-03T17:33:34.955Z,67.59
2023-08-03T17:36:15.688Z,66.55
2023-08-03T17:38:52.212Z,67.49
2023-08-03T17:41:36.351Z,68.09
2023-08-03T17:44:11.383Z,67.57
2023-08-03T17:46:49.421Z,67.82
2023-08-03T17:49:25.200Z,67.97
2023-08-03T17:51:59.505Z,67.85
2023-08-03T17:54:31.766Z,67.73
2023-08-03T17:57:06.000Z,68.25
2023-08-03T17:59:40.276Z,68.75
2023-08-03T18:02:38.769Z,69.01
2023-08-03T18:05:19.458Z,69.57
2023-08-03T18:07:57.933Z,69.62
2023-08-03T18:10:32.862Z,69.36
2023-08-03T18:13:11.462Z,70.09
2023-08-03T18:15:47.147Z,70.27
2023-08-03T18:18:23.686Z,70.38
2023-08-03T18:21:04.213Z,69.23
2023-08-03T18:23:40.883Z,70.44
2023-08-03T18:26:20.672Z,70.24
2023-08-03T18:28:52.295Z,69.90
2023-08-03T18:31:25.888Z,70.13
2023-08-03T18:34:11.004Z,69.59
2023-08-03T18:36:57.183Z,70.67
2023-08-03T18:39:33.667Z,70.92
2023-08-03T18:42:31.425Z,70.91
2023-08-03T18:45:06.664Z,70.61
2023-08-03T18:47:45.090Z,70.38
2023-08-03T18:50:30.002Z,71.79
2023-08-03T18:53:03.885Z,71.50
2023-08-03T18:55:41.398Z,72.19
2023-08-03T18:58:15.669Z,71.76
2023-08-03T19:00:49.381Z,71.38
2023-08-03T19:03:22.446Z,71.86
2023-08-03T19:06:07.517Z,71.49
2023-08-03T19:08:49.442Z,70.56
2023-08-03T19:11:40.428Z,70.41
2023-08-03T19:14:20.818Z,69.15
2023-08-03T19:16:56.181Z,69.07
2023-08-03T19:19:34.126Z,69.23
2023-08-03T19:22:20.680Z,69.57
2023-08-03T19:25:04.253Z,69.89
2023-08-03T19:27:39.967Z,69.67
2023-08-03T19:30:14.410Z,69.40
2023-08-03T19:32:54.081Z,69.46
2023-08-03T19:35:30.454Z,69.52
2023-08-03T19:38:20.337Z,69.50
2023-08-03T19:40:56.740Z,69.91
2023-08-03T19:43:38.666Z,70.02
2023-08-03T19:46:23.513Z,69.30
2023-08-03T19:48:58.641Z,68.79
2023-08-03T19:57:03.042Z,69.53
2023-08-03T20:00:50.676Z,70.05
2023-08-03T20:10:56.385Z,69.64
2023-08-03T20:19:24.510Z,69.91
2023-08-03T20:22:07.738Z,69.46
2023-08-03T20:24:48.380Z,69.98
2023-08-03T20:27:28.514Z,69.63
2023-08-03T20:30:13.045Z,69.95
2023-08-03T20:32:49.159Z,70.35
2023-08-03T20:38:09.046Z,70.78
2023-08-03T20:40:48.908Z,71.58
2023-08-03T20:45:55.594Z,72.56
2023-08-03T20:51:06.552Z,72.13
2023-08-03T20:53:37.793Z,72.38
2023-08-03T20:56:11.102Z,72.49
2023-08-03T20:58:46.677Z,72.26
2023-08-03T21:01:20.679Z,72.98
2023-08-03T21:03:48.928Z,72.72
2023-08-03T21:06:21.560Z,72.73
2023-08-03T21:08:53.456Z,72.54
2023-08-03T21:11:24.332Z,73.58
2023-08-03T21:13:57.448Z,73.32
2023-08-03T21:16:28.285Z,73.60
2023-08-03T21:21:36.494Z,73.72
2023-08-03T21:24:09.778Z,72.73
2023-08-03T21:26:46.549Z,73.12
2023-08-03T21:29:21.964Z,73.18
2023-08-03T21:31:53.065Z,73.75
2023-08-03T21:34:24.958Z,73.84
2023-08-03T21:36:53.928Z,73.24
2023-08-03T21:39:24.438Z,73.96
2023-08-03T21:41:52.900Z,72.36
2023-08-03T21:44:25.499Z,74.19
2023-08-03T21:46:55.159Z,74.40
2023-08-03T21:49:31.575Z,74.77
2023-08-03T21:52:05.121Z,75.13
2023-08-03T21:54:36.976Z,77.28
2023-08-03T21:57:08.660Z,77.66
2023-08-03T21:59:44.935Z,79.02
2023-08-03T22:02:16.245Z,78.38
2023-08-03T22:04:45.879Z,78.49
2023-08-03T22:07:19.285Z,78.68
2023-08-03T22:09:56.285Z,79.17
2023-08-03T22:12:29.617Z,78.86
2023-08-03T22:15:13.994Z,79.49
2023-08-03T22:17:50.382Z,79.21
2023-08-03T22:20:23.297Z,77.88
2023-08-03T22:22:52.122Z,76.99
2023-08-03T22:25:21.691Z,75.86
2023-08-03T22:27:55.811Z,75.51
2023-08-03T22:30:40.678Z,75.52
2023-08-03T22:33:12.021Z,75.82
2023-08-03T22:35:46.276Z,75.59
2023-08-03T22:38:15.186Z,75.55
2023-08-03T22:40:49.187Z,75.14
2023-08-03T22:43:23.739Z,75.11
2023-08-03T22:45:55.764Z,74.47
2023-08-03T22:48:24.598Z,75.33
2023-08-03T22:50:57.937Z,75.34
2023-08-03T22:53:28.382Z,75.55
2023-08-03T22:56:07.105Z,76.13
2023-08-03T22:58:41.522Z,77.29
2023-08-03T23:01:24.854Z,78.33
2023-08-03T23:03:54.728Z,79.02
2023-08-03T23:06:25.537Z,79.46
2023-08-03T23:08:57.991Z,80.82
2023-08-03T23:11:33.835Z,82.38
2023-08-03T23:14:05.584Z,83.57
2023-08-03T23:16:45.253Z,84.54
2023-08-03T23:19:16.131Z,86.26
2023-08-03T23:21:47.659Z,87.42
2023-08-03T23:24:17.362Z,88.50
2023-08-03T23:26:57.404Z,89.88
2023-08-03T23:29:29.086Z,90.57
2023-08-03T23:32:04.555Z,91.85
2023-08-03T23:34:37.652Z,92.99
2023-08-03T23:37:07.375Z,90.96
2023-08-03T23:39:37.078Z,91.82
2023-08-03T23:42:11.063Z,93.57
2023-08-03T23:44:40.773Z,94.55
2023-08-03T23:47:20.771Z,94.04
2023-08-03T23:49:58.636Z,94.36
2023-08-03T23:52:29.375Z,95.60
2023-08-03T23:55:01.358Z,94.28
2023-08-03T23:57:35.341Z,95.84
